sensor_id;sensor_type;location;lat;lon;timestamp;P1;durP1;ratioP1;P2;durP2;ratioP2
68583;SDS011;55557;49.220;11.150;2023-10-13T00:01:23;10.67;;;7.07;;
68583;SDS011;55557;49.220;11.150;2023-10-13T00:03:52;10.10;;;7.00;;
68583;SDS011;55557;49.220;11.150;2023-10-13T00:06:19;14.00;;;7.13;;
68583;SDS011;55557;49.220;11.150;2023-10-13T00:08:45;14.27;;;7.50;;
68583;SDS011;55557;49.220;11.150;2023-10-13T00:11:14;10.10;;;6.50;;
68583;SDS011;55557;49.220;11.150;2023-10-13T00:13:41;10.30;;;6.30;;
68583;SDS011;55557;49.220;11.150;2023-10-13T00:16:17;9.90;;;7.30;;
68583;SDS011;55557;49.220;11.150;2023-10-13T00:18:46;16.40;;;6.70;;
68583;SDS011;55557;49.220;11.150;2023-10-13T00:21:13;14.20;;;7.50;;
68583;SDS011;55557;49.220;11.150;2023-10-13T00:23:56;10.27;;;7.50;;
68583;SDS011;55557;49.220;11.150;2023-10-13T00:26:22;20.83;;;8.37;;
68583;SDS011;55557;49.220;11.150;2023-10-13T00:28:52;11.47;;;7.63;;
68583;SDS011;55557;49.220;11.150;2023-10-13T00:31:26;12.83;;;8.47;;
68583;SDS011;55557;49.220;11.150;2023-10-13T00:33:58;17.00;;;8.07;;
68583;SDS011;55557;49.220;11.150;2023-10-13T00:36:37;12.30;;;8.17;;
68583;SDS011;55557;49.220;11.150;2023-10-13T00:39:13;15.80;;;7.53;;
68583;SDS011;55557;49.220;11.150;2023-10-13T00:41:41;10.80;;;7.10;;
68583;SDS011;55557;49.220;11.150;2023-10-13T00:44:30;15.10;;;7.87;;
68583;SDS011;55557;49.220;11.150;2023-10-13T00:47:09;11.80;;;7.83;;
68583;SDS011;55557;49.220;11.150;2023-10-13T00:49:41;11.60;;;7.10;;
68583;SDS011;55557;49.220;11.150;2023-10-13T00:52:12;12.87;;;7.40;;
68583;SDS011;55557;49.220;11.150;2023-10-13T00:54:40;12.03;;;7.77;;
68583;SDS011;55557;49.220;11.150;2023-10-13T00:57:11;14.93;;;7.70;;
68583;SDS011;55557;49.220;11.150;2023-10-13T00:59:51;19.13;;;8.17;;
68583;SDS011;55557;49.220;11.150;2023-10-13T01:02:18;12.43;;;6.87;;
68583;SDS011;55557;49.220;11.150;2023-10-13T01:04:59;11.90;;;7.10;;
68583;SDS011;55557;49.220;11.150;2023-10-13T01:07:25;10.73;;;6.83;;
68583;SDS011;55557;49.220;11.150;2023-10-13T01:09:53;11.73;;;6.63;;
68583;SDS011;55557;49.220;11.150;2023-10-13T01:12:19;8.23;;;6.20;;
68583;SDS011;55557;49.220;11.150;2023-10-13T01:14:48;10.20;;;6.83;;
68583;SDS011;55557;49.220;11.150;2023-10-13T01:17:14;8.80;;;6.47;;
68583;SDS011;55557;49.220;11.150;2023-10-13T01:19:40;11.00;;;7.43;;
68583;SDS011;55557;49.220;11.150;2023-10-13T01:22:08;11.30;;;5.87;;
68583;SDS011;55557;49.220;11.150;2023-10-13T01:24:35;8.10;;;6.43;;
68583;SDS011;55557;49.220;11.150;2023-10-13T01:29:55;9.93;;;7.23;;
68583;SDS011;55557;49.220;11.150;2023-10-13T01:32:31;13.87;;;7.77;;
68583;SDS011;55557;49.220;11.150;2023-10-13T01:34:57;10.47;;;7.50;;
68583;SDS011;55557;49.220;11.150;2023-10-13T01:37:30;11.47;;;6.90;;
68583;SDS011;55557;49.220;11.150;2023-10-13T01:39:56;12.63;;;6.63;;
68583;SDS011;55557;49.220;11.150;2023-10-13T01:42:22;9.73;;;6.93;;
68583;SDS011;55557;49.220;11.150;2023-10-13T01:44:50;10.17;;;6.73;;
68583;SDS011;55557;49.220;11.150;2023-10-13T01:47:16;9.73;;;6.00;;
68583;SDS011;55557;49.220;11.150;2023-10-13T01:49:42;11.20;;;7.33;;
68583;SDS011;55557;49.220;11.150;2023-10-13T01:52:15;9.27;;;6.40;;
68583;SDS011;55557;49.220;11.150;2023-10-13T01:54:44;14.40;;;7.63;;
68583;SDS011;55557;49.220;11.150;2023-10-13T01:57:13;10.10;;;6.57;;
68583;SDS011;55557;49.220;11.150;2023-10-13T01:59:43;8.57;;;6.00;;
68583;SDS011;55557;49.220;11.150;2023-10-13T02:02:09;11.00;;;6.90;;
68583;SDS011;55557;49.220;11.150;2023-10-13T02:04:42;9.47;;;6.37;;
68583;SDS011;55557;49.220;11.150;2023-10-13T02:07:14;11.83;;;6.23;;
68583;SDS011;55557;49.220;11.150;2023-10-13T02:09:41;12.00;;;6.97;;
68583;SDS011;55557;49.220;11.150;2023-10-13T02:12:08;10.47;;;6.97;;
68583;SDS011;55557;49.220;11.150;2023-10-13T02:14:34;8.87;;;5.77;;
68583;SDS011;55557;49.220;11.150;2023-10-13T02:17:03;9.40;;;6.13;;
68583;SDS011;55557;49.220;11.150;2023-10-13T02:19:38;11.20;;;5.63;;
68583;SDS011;55557;49.220;11.150;2023-10-13T02:22:08;16.23;;;6.83;;
68583;SDS011;55557;49.220;11.150;2023-10-13T02:24:35;14.20;;;6.40;;
68583;SDS011;55557;49.220;11.150;2023-10-13T02:27:05;10.20;;;5.67;;
68583;SDS011;55557;49.220;11.150;2023-10-13T02:29:38;8.67;;;5.70;;
68583;SDS011;55557;49.220;11.150;2023-10-13T02:32:04;9.93;;;6.07;;
68583;SDS011;55557;49.220;11.150;2023-10-13T02:34:37;13.40;;;6.67;;
68583;SDS011;55557;49.220;11.150;2023-10-13T02:37:08;11.00;;;6.93;;
68583;SDS011;55557;49.220;11.150;2023-10-13T02:39:35;13.57;;;7.17;;
68583;SDS011;55557;49.220;11.150;2023-10-13T02:42:03;9.80;;;6.00;;
68583;SDS011;55557;49.220;11.150;2023-10-13T02:44:32;8.77;;;5.50;;
68583;SDS011;55557;49.220;11.150;2023-10-13T02:46:58;9.70;;;6.23;;
68583;SDS011;55557;49.220;11.150;2023-10-13T02:49:25;15.37;;;6.27;;
68583;SDS011;55557;49.220;11.150;2023-10-13T02:51:52;14.70;;;6.77;;
68583;SDS011;55557;49.220;11.150;2023-10-13T02:54:18;11.07;;;6.57;;
68583;SDS011;55557;49.220;11.150;2023-10-13T02:56:44;8.80;;;6.27;;
68583;SDS011;55557;49.220;11.150;2023-10-13T02:59:23;12.53;;;5.60;;
68583;SDS011;55557;49.220;11.150;2023-10-13T03:02:21;9.10;;;6.07;;
68583;SDS011;55557;49.220;11.150;2023-10-13T03:04:47;9.70;;;5.97;;
68583;SDS011;55557;49.220;11.150;2023-10-13T03:07:13;8.90;;;6.13;;
68583;SDS011;55557;49.220;11.150;2023-10-13T03:09:51;8.63;;;6.07;;
68583;SDS011;55557;49.220;11.150;2023-10-13T03:12:18;11.10;;;6.27;;
68583;SDS011;55557;49.220;11.150;2023-10-13T03:14:44;8.60;;;6.13;;
68583;SDS011;55557;49.220;11.150;2023-10-13T03:17:13;9.23;;;6.13;;
68583;SDS011;55557;49.220;11.150;2023-10-13T03:19:42;10.87;;;6.27;;
68583;SDS011;55557;49.220;11.150;2023-10-13T03:22:15;10.03;;;5.60;;
68583;SDS011;55557;49.220;11.150;2023-10-13T03:24:41;11.20;;;6.10;;
68583;SDS011;55557;49.220;11.150;2023-10-13T03:27:12;9.47;;;5.13;;
68583;SDS011;55557;49.220;11.150;2023-10-13T03:29:41;10.77;;;5.57;;
68583;SDS011;55557;49.220;11.150;2023-10-13T03:32:12;8.60;;;5.40;;
68583;SDS011;55557;49.220;11.150;2023-10-13T03:34:40;11.80;;;5.40;;
68583;SDS011;55557;49.220;11.150;2023-10-13T03:37:16;11.97;;;5.33;;
68583;SDS011;55557;49.220;11.150;2023-10-13T03:40:05;10.00;;;5.73;;
68583;SDS011;55557;49.220;11.150;2023-10-13T03:42:40;9.37;;;5.63;;
68583;SDS011;55557;49.220;11.150;2023-10-13T03:45:07;7.17;;;5.20;;
68583;SDS011;55557;49.220;11.150;2023-10-13T03:47:35;10.23;;;5.67;;
68583;SDS011;55557;49.220;11.150;2023-10-13T03:50:03;10.50;;;5.43;;
68583;SDS011;55557;49.220;11.150;2023-10-13T03:52:47;9.17;;;5.23;;
68583;SDS011;55557;49.220;11.150;2023-10-13T03:55:13;9.07;;;5.53;;
68583;SDS011;55557;49.220;11.150;2023-10-13T03:57:42;13.43;;;6.07;;
68583;SDS011;55557;49.220;11.150;2023-10-13T04:00:10;12.10;;;5.80;;
68583;SDS011;55557;49.220;11.150;2023-10-13T04:02:46;9.83;;;5.50;;
68583;SDS011;55557;49.220;11.150;2023-10-13T04:05:18;9.83;;;5.70;;
68583;SDS011;55557;49.220;11.150;2023-10-13T04:08:03;8.40;;;5.57;;
68583;SDS011;55557;49.220;11.150;2023-10-13T04:10:48;7.97;;;5.53;;
68583;SDS011;55557;49.220;11.150;2023-10-13T04:13:16;11.93;;;6.00;;
68583;SDS011;55557;49.220;11.150;2023-10-13T04:16:02;12.47;;;5.37;;
68583;SDS011;55557;49.220;11.150;2023-10-13T04:19:01;9.33;;;6.07;;
68583;SDS011;55557;49.220;11.150;2023-10-13T04:21:27;9.87;;;5.53;;
68583;SDS011;55557;49.220;11.150;2023-10-13T04:24:08;11.07;;;5.33;;
68583;SDS011;55557;49.220;11.150;2023-10-13T04:26:48;9.47;;;4.77;;
68583;SDS011;55557;49.220;11.150;2023-10-13T04:29:33;8.37;;;5.03;;
68583;SDS011;55557;49.220;11.150;2023-10-13T04:32:18;8.37;;;5.37;;
68583;SDS011;55557;49.220;11.150;2023-10-13T04:35:00;9.03;;;5.00;;
68583;SDS011;55557;49.220;11.150;2023-10-13T04:37:38;8.63;;;4.70;;
68583;SDS011;55557;49.220;11.150;2023-10-13T04:40:23;7.10;;;4.83;;
68583;SDS011;55557;49.220;11.150;2023-10-13T04:43:00;7.67;;;5.27;;
68583;SDS011;55557;49.220;11.150;2023-10-13T04:45:30;6.20;;;4.93;;
68583;SDS011;55557;49.220;11.150;2023-10-13T04:47:57;8.97;;;5.80;;
68583;SDS011;55557;49.220;11.150;2023-10-13T04:50:38;5.37;;;4.03;;
68583;SDS011;55557;49.220;11.150;2023-10-13T04:53:10;6.27;;;4.57;;
68583;SDS011;55557;49.220;11.150;2023-10-13T04:55:53;11.83;;;5.00;;
68583;SDS011;55557;49.220;11.150;2023-10-13T04:58:25;8.00;;;5.07;;
68583;SDS011;55557;49.220;11.150;2023-10-13T05:01:00;11.13;;;5.10;;
68583;SDS011;55557;49.220;11.150;2023-10-13T05:04:02;13.90;;;5.37;;
68583;SDS011;55557;49.220;11.150;2023-10-13T05:06:47;6.13;;;4.70;;
68583;SDS011;55557;49.220;11.150;2023-10-13T05:09:32;8.97;;;5.03;;
68583;SDS011;55557;49.220;11.150;2023-10-13T05:12:16;10.13;;;5.80;;
68583;SDS011;55557;49.220;11.150;2023-10-13T05:15:01;6.83;;;4.63;;
68583;SDS011;55557;49.220;11.150;2023-10-13T05:17:45;7.37;;;4.60;;
68583;SDS011;55557;49.220;11.150;2023-10-13T05:20:30;10.00;;;5.23;;
68583;SDS011;55557;49.220;11.150;2023-10-13T05:23:15;8.30;;;4.73;;
68583;SDS011;55557;49.220;11.150;2023-10-13T05:26:02;7.13;;;5.57;;
68583;SDS011;55557;49.220;11.150;2023-10-13T05:28:47;7.83;;;5.27;;
68583;SDS011;55557;49.220;11.150;2023-10-13T05:31:31;10.37;;;5.50;;
68583;SDS011;55557;49.220;11.150;2023-10-13T05:34:16;8.37;;;4.97;;
68583;SDS011;55557;49.220;11.150;2023-10-13T05:37:00;6.53;;;4.73;;
68583;SDS011;55557;49.220;11.150;2023-10-13T05:39:45;7.70;;;4.53;;
68583;SDS011;55557;49.220;11.150;2023-10-13T05:42:30;9.33;;;5.07;;
68583;SDS011;55557;49.220;11.150;2023-10-13T05:45:14;6.60;;;4.60;;
68583;SDS011;55557;49.220;11.150;2023-10-13T05:47:43;6.13;;;4.73;;
68583;SDS011;55557;49.220;11.150;2023-10-13T05:50:10;12.37;;;4.93;;
68583;SDS011;55557;49.220;11.150;2023-10-13T05:52:45;6.67;;;4.67;;
68583;SDS011;55557;49.220;11.150;2023-10-13T05:55:27;6.23;;;5.13;;
68583;SDS011;55557;49.220;11.150;2023-10-13T05:58:12;5.40;;;4.33;;
68583;SDS011;55557;49.220;11.150;2023-10-13T06:00:57;8.57;;;4.77;;
68583;SDS011;55557;49.220;11.150;2023-10-13T06:03:42;7.00;;;4.83;;
68583;SDS011;55557;49.220;11.150;2023-10-13T06:06:27;10.07;;;4.70;;
68583;SDS011;55557;49.220;11.150;2023-10-13T06:09:11;7.97;;;4.47;;
68583;SDS011;55557;49.220;11.150;2023-10-13T06:11:56;6.47;;;4.40;;
68583;SDS011;55557;49.220;11.150;2023-10-13T06:14:40;7.40;;;5.07;;
68583;SDS011;55557;49.220;11.150;2023-10-13T06:17:29;10.90;;;4.80;;
68583;SDS011;55557;49.220;11.150;2023-10-13T06:20:14;11.07;;;4.80;;
68583;SDS011;55557;49.220;11.150;2023-10-13T06:22:58;9.63;;;5.00;;
68583;SDS011;55557;49.220;11.150;2023-10-13T06:25:43;5.73;;;4.87;;
68583;SDS011;55557;49.220;11.150;2023-10-13T06:28:38;9.35;;;5.20;;
68583;SDS011;55557;49.220;11.150;2023-10-13T06:31:11;6.80;;;5.23;;
68583;SDS011;55557;49.220;11.150;2023-10-13T06:33:46;7.17;;;4.67;;
68583;SDS011;55557;49.220;11.150;2023-10-13T06:36:12;5.47;;;4.17;;
68583;SDS011;55557;49.220;11.150;2023-10-13T06:38:38;13.47;;;4.73;;
68583;SDS011;55557;49.220;11.150;2023-10-13T06:41:05;5.37;;;4.33;;
68583;SDS011;55557;49.220;11.150;2023-10-13T06:43:35;7.70;;;5.00;;
68583;SDS011;55557;49.220;11.150;2023-10-13T06:46:05;8.57;;;4.60;;
68583;SDS011;55557;49.220;11.150;2023-10-13T06:48:32;6.23;;;4.33;;
68583;SDS011;55557;49.220;11.150;2023-10-13T06:50:59;6.10;;;4.30;;
68583;SDS011;55557;49.220;11.150;2023-10-13T06:53:29;5.50;;;4.00;;
68583;SDS011;55557;49.220;11.150;2023-10-13T06:56:01;7.77;;;4.77;;
68583;SDS011;55557;49.220;11.150;2023-10-13T06:58:28;7.13;;;4.93;;
68583;SDS011;55557;49.220;11.150;2023-10-13T07:00:54;9.27;;;4.63;;
68583;SDS011;55557;49.220;11.150;2023-10-13T07:03:21;5.13;;;4.03;;
68583;SDS011;55557;49.220;11.150;2023-10-13T07:05:47;6.00;;;4.63;;
68583;SDS011;55557;49.220;11.150;2023-10-13T07:08:14;9.83;;;4.70;;
68583;SDS011;55557;49.220;11.150;2023-10-13T07:10:51;9.07;;;4.83;;
68583;SDS011;55557;49.220;11.150;2023-10-13T07:13:19;14.63;;;4.57;;
68583;SDS011;55557;49.220;11.150;2023-10-13T07:15:47;8.53;;;4.27;;
68583;SDS011;55557;49.220;11.150;2023-10-13T07:18:13;6.97;;;4.37;;
68583;SDS011;55557;49.220;11.150;2023-10-13T07:20:41;5.10;;;4.40;;
68583;SDS011;55557;49.220;11.150;2023-10-13T07:23:11;10.43;;;4.90;;
68583;SDS011;55557;49.220;11.150;2023-10-13T07:25:42;10.80;;;4.73;;
68583;SDS011;55557;49.220;11.150;2023-10-13T07:28:09;6.27;;;4.67;;
68583;SDS011;55557;49.220;11.150;2023-10-13T07:30:35;12.33;;;4.40;;
68583;SDS011;55557;49.220;11.150;2023-10-13T07:33:07;10.57;;;4.77;;
68583;SDS011;55557;49.220;11.150;2023-10-13T07:35:38;8.07;;;5.63;;
68583;SDS011;55557;49.220;11.150;2023-10-13T07:38:04;11.37;;;4.70;;
68583;SDS011;55557;49.220;11.150;2023-10-13T07:40:32;9.27;;;4.83;;
68583;SDS011;55557;49.220;11.150;2023-10-13T07:42:58;8.47;;;5.03;;
68583;SDS011;55557;49.220;11.150;2023-10-13T07:45:35;8.93;;;4.77;;
68583;SDS011;55557;49.220;11.150;2023-10-13T07:48:02;7.03;;;4.80;;
68583;SDS011;55557;49.220;11.150;2023-10-13T07:50:33;8.80;;;4.43;;
68583;SDS011;55557;49.220;11.150;2023-10-13T07:52:59;8.33;;;4.90;;
68583;SDS011;55557;49.220;11.150;2023-10-13T07:55:43;12.33;;;5.87;;
68583;SDS011;55557;49.220;11.150;2023-10-13T07:58:09;9.50;;;5.37;;
68583;SDS011;55557;49.220;11.150;2023-10-13T08:00:38;6.87;;;4.83;;
68583;SDS011;55557;49.220;11.150;2023-10-13T08:03:10;6.80;;;4.77;;
68583;SDS011;55557;49.220;11.150;2023-10-13T08:05:51;8.47;;;5.33;;
68583;SDS011;55557;49.220;11.150;2023-10-13T08:08:35;7.13;;;4.50;;
68583;SDS011;55557;49.220;11.150;2023-10-13T08:11:11;9.13;;;4.97;;
68583;SDS011;55557;49.220;11.150;2023-10-13T08:13:54;12.50;;;5.67;;
68583;SDS011;55557;49.220;11.150;2023-10-13T08:16:24;8.53;;;5.63;;
68583;SDS011;55557;49.220;11.150;2023-10-13T08:19:10;8.97;;;4.97;;
68583;SDS011;55557;49.220;11.150;2023-10-13T08:21:36;10.60;;;5.90;;
68583;SDS011;55557;49.220;11.150;2023-10-13T08:24:02;10.70;;;4.83;;
68583;SDS011;55557;49.220;11.150;2023-10-13T08:26:31;11.83;;;5.80;;
68583;SDS011;55557;49.220;11.150;2023-10-13T08:29:00;9.97;;;5.13;;
68583;SDS011;55557;49.220;11.150;2023-10-13T08:31:45;9.77;;;5.27;;
68583;SDS011;55557;49.220;11.150;2023-10-13T08:34:30;7.40;;;4.90;;
68583;SDS011;55557;49.220;11.150;2023-10-13T08:37:12;8.40;;;5.57;;
68583;SDS011;55557;49.220;11.150;2023-10-13T08:39:54;17.07;;;5.20;;
68583;SDS011;55557;49.220;11.150;2023-10-13T08:42:30;10.80;;;5.33;;
68583;SDS011;55557;49.220;11.150;2023-10-13T08:45:19;11.13;;;5.57;;
68583;SDS011;55557;49.220;11.150;2023-10-13T08:48:06;8.77;;;4.83;;
68583;SDS011;55557;49.220;11.150;2023-10-13T08:50:37;9.77;;;4.20;;
68583;SDS011;55557;49.220;11.150;2023-10-13T08:53:13;12.73;;;5.17;;
68583;SDS011;55557;49.220;11.150;2023-10-13T08:58:41;8.20;;;3.87;;
68583;SDS011;55557;49.220;11.150;2023-10-13T09:01:20;6.23;;;3.73;;
68583;SDS011;55557;49.220;11.150;2023-10-13T09:03:58;12.00;;;4.40;;
68583;SDS011;55557;49.220;11.150;2023-10-13T09:12:02;8.43;;;3.20;;
68583;SDS011;55557;49.220;11.150;2023-10-13T09:14:38;13.93;;;3.43;;
68583;SDS011;55557;49.220;11.150;2023-10-13T09:17:09;6.17;;;3.50;;
68583;SDS011;55557;49.220;11.150;2023-10-13T09:19:58;5.10;;;3.33;;
68583;SDS011;55557;49.220;11.150;2023-10-13T09:22:36;8.20;;;3.63;;
68583;SDS011;55557;49.220;11.150;2023-10-13T09:25:03;7.40;;;3.03;;
68583;SDS011;55557;49.220;11.150;2023-10-13T09:27:30;8.63;;;2.97;;
68583;SDS011;55557;49.220;11.150;2023-10-13T09:30:02;7.07;;;3.27;;
68583;SDS011;55557;49.220;11.150;2023-10-13T09:33:01;6.27;;;2.90;;
68583;SDS011;55557;49.220;11.150;2023-10-13T09:35:30;8.20;;;3.10;;
68583;SDS011;55557;49.220;11.150;2023-10-13T09:37:59;5.93;;;3.23;;
68583;SDS011;55557;49.220;11.150;2023-10-13T09:40:27;9.43;;;3.13;;
68583;SDS011;55557;49.220;11.150;2023-10-13T09:43:03;6.67;;;3.10;;
68583;SDS011;55557;49.220;11.150;2023-10-13T09:45:40;7.03;;;2.97;;
68583;SDS011;55557;49.220;11.150;2023-10-13T09:48:11;7.50;;;3.00;;
68583;SDS011;55557;49.220;11.150;2023-10-13T09:50:46;10.50;;;3.30;;
68583;SDS011;55557;49.220;11.150;2023-10-13T09:53:16;10.83;;;2.87;;
68583;SDS011;55557;49.220;11.150;2023-10-13T09:56:00;9.40;;;3.33;;
68583;SDS011;55557;49.220;11.150;2023-10-13T09:58:38;5.80;;;3.00;;
68583;SDS011;55557;49.220;11.150;2023-10-13T10:01:12;5.60;;;2.53;;
68583;SDS011;55557;49.220;11.150;2023-10-13T10:03:50;4.17;;;2.57;;
68583;SDS011;55557;49.220;11.150;2023-10-13T10:06:33;8.17;;;3.13;;
68583;SDS011;55557;49.220;11.150;2023-10-13T10:09:10;6.60;;;3.03;;
68583;SDS011;55557;49.220;11.150;2023-10-13T10:14:36;7.40;;;3.00;;
68583;SDS011;55557;49.220;11.150;2023-10-13T10:17:07;4.77;;;2.70;;
68583;SDS011;55557;49.220;11.150;2023-10-13T10:19:46;7.97;;;3.07;;
68583;SDS011;55557;49.220;11.150;2023-10-13T10:22:24;8.67;;;3.00;;
68583;SDS011;55557;49.220;11.150;2023-10-13T10:24:58;11.20;;;2.77;;
68583;SDS011;55557;49.220;11.150;2023-10-13T10:27:27;9.10;;;2.90;;
68583;SDS011;55557;49.220;11.150;2023-10-13T10:29:54;16.73;;;3.13;;
68583;SDS011;55557;49.220;11.150;2023-10-13T10:32:20;6.93;;;2.80;;
68583;SDS011;55557;49.220;11.150;2023-10-13T10:34:46;6.50;;;2.90;;
68583;SDS011;55557;49.220;11.150;2023-10-13T10:37:13;6.40;;;2.70;;
68583;SDS011;55557;49.220;11.150;2023-10-13T10:39:40;8.87;;;2.33;;
68583;SDS011;55557;49.220;11.150;2023-10-13T10:42:14;6.47;;;2.73;;
68583;SDS011;55557;49.220;11.150;2023-10-13T10:44:42;6.73;;;2.70;;
68583;SDS011;55557;49.220;11.150;2023-10-13T10:47:17;5.57;;;2.60;;
68583;SDS011;55557;49.220;11.150;2023-10-13T10:49:56;9.00;;;2.30;;
68583;SDS011;55557;49.220;11.150;2023-10-13T10:52:23;5.30;;;2.53;;
68583;SDS011;55557;49.220;11.150;2023-10-13T10:54:58;9.23;;;3.17;;
68583;SDS011;55557;49.220;11.150;2023-10-13T10:57:24;8.17;;;2.53;;
68583;SDS011;55557;49.220;11.150;2023-10-13T10:59:54;8.00;;;3.23;;
68583;SDS011;55557;49.220;11.150;2023-10-13T11:02:37;5.93;;;2.60;;
68583;SDS011;55557;49.220;11.150;2023-10-13T11:05:03;11.70;;;2.63;;
68583;SDS011;55557;49.220;11.150;2023-10-13T11:07:31;11.93;;;3.20;;
68583;SDS011;55557;49.220;11.150;2023-10-13T11:10:09;7.20;;;2.93;;
68583;SDS011;55557;49.220;11.150;2023-10-13T11:12:55;11.77;;;2.80;;
68583;SDS011;55557;49.220;11.150;2023-10-13T11:15:21;6.60;;;2.40;;
68583;SDS011;55557;49.220;11.150;2023-10-13T11:17:50;13.43;;;3.00;;
68583;SDS011;55557;49.220;11.150;2023-10-13T11:20:20;12.17;;;4.27;;
68583;SDS011;55557;49.220;11.150;2023-10-13T11:22:59;11.80;;;2.73;;
68583;SDS011;55557;49.220;11.150;2023-10-13T11:25:25;7.03;;;2.23;;
68583;SDS011;55557;49.220;11.150;2023-10-13T11:27:55;5.73;;;2.20;;
68583;SDS011;55557;49.220;11.150;2023-10-13T11:30:23;8.23;;;2.53;;
68583;SDS011;55557;49.220;11.150;2023-10-13T11:33:07;6.87;;;2.67;;
68583;SDS011;55557;49.220;11.150;2023-10-13T11:35:37;7.53;;;2.40;;
68583;SDS011;55557;49.220;11.150;2023-10-13T11:38:22;5.33;;;2.47;;
68583;SDS011;55557;49.220;11.150;2023-10-13T11:40:55;5.47;;;2.57;;
68583;SDS011;55557;49.220;11.150;2023-10-13T11:43:31;7.43;;;2.57;;
68583;SDS011;55557;49.220;11.150;2023-10-13T11:46:01;6.90;;;2.43;;
68583;SDS011;55557;49.220;11.150;2023-10-13T11:48:33;5.03;;;2.20;;
68583;SDS011;55557;49.220;11.150;2023-10-13T11:51:01;7.80;;;2.70;;
68583;SDS011;55557;49.220;11.150;2023-10-13T11:53:36;6.53;;;2.30;;
68583;SDS011;55557;49.220;11.150;2023-10-13T11:56:04;5.93;;;2.17;;
68583;SDS011;55557;49.220;11.150;2023-10-13T11:58:36;7.83;;;2.67;;
68583;SDS011;55557;49.220;11.150;2023-10-13T12:01:02;9.63;;;2.70;;
68583;SDS011;55557;49.220;11.150;2023-10-13T12:03:43;4.93;;;2.23;;
68583;SDS011;55557;49.220;11.150;2023-10-13T12:06:28;5.70;;;2.73;;
68583;SDS011;55557;49.220;11.150;2023-10-13T12:09:07;15.13;;;2.87;;
68583;SDS011;55557;49.220;11.150;2023-10-13T12:11:39;6.37;;;2.47;;
68583;SDS011;55557;49.220;11.150;2023-10-13T12:14:07;4.30;;;2.33;;
68583;SDS011;55557;49.220;11.150;2023-10-13T12:16:43;12.83;;;2.97;;
68583;SDS011;55557;49.220;11.150;2023-10-13T12:19:14;7.30;;;2.67;;
68583;SDS011;55557;49.220;11.150;2023-10-13T12:21:41;5.23;;;2.30;;
68583;SDS011;55557;49.220;11.150;2023-10-13T12:24:08;7.80;;;2.30;;
68583;SDS011;55557;49.220;11.150;2023-10-13T12:26:47;11.20;;;2.97;;
68583;SDS011;55557;49.220;11.150;2023-10-13T12:29:13;14.10;;;3.17;;
68583;SDS011;55557;49.220;11.150;2023-10-13T12:31:47;10.70;;;2.20;;
68583;SDS011;55557;49.220;11.150;2023-10-13T12:34:30;7.43;;;2.23;;
68583;SDS011;55557;49.220;11.150;2023-10-13T12:37:16;5.17;;;2.30;;
68583;SDS011;55557;49.220;11.150;2023-10-13T12:40:08;9.00;;;2.27;;
68583;SDS011;55557;49.220;11.150;2023-10-13T12:42:53;11.10;;;2.60;;
68583;SDS011;55557;49.220;11.150;2023-10-13T12:45:40;6.07;;;2.33;;
68583;SDS011;55557;49.220;11.150;2023-10-13T12:48:24;7.57;;;2.47;;
68583;SDS011;55557;49.220;11.150;2023-10-13T12:51:09;5.63;;;2.20;;
68583;SDS011;55557;49.220;11.150;2023-10-13T12:53:54;5.97;;;2.73;;
68583;SDS011;55557;49.220;11.150;2023-10-13T12:56:20;3.90;;;2.17;;
68583;SDS011;55557;49.220;11.150;2023-10-13T12:58:53;4.03;;;2.10;;
68583;SDS011;55557;49.220;11.150;2023-10-13T13:01:20;4.77;;;2.23;;
68583;SDS011;55557;49.220;11.150;2023-10-13T13:03:46;7.23;;;2.77;;
68583;SDS011;55557;49.220;11.150;2023-10-13T13:06:19;6.73;;;2.80;;
68583;SDS011;55557;49.220;11.150;2023-10-13T13:08:55;9.90;;;2.50;;
68583;SDS011;55557;49.220;11.150;2023-10-13T13:11:21;4.37;;;2.20;;
68583;SDS011;55557;49.220;11.150;2023-10-13T13:13:48;4.97;;;2.40;;
68583;SDS011;55557;49.220;11.150;2023-10-13T13:16:14;8.10;;;2.43;;
68583;SDS011;55557;49.220;11.150;2023-10-13T13:18:43;8.43;;;2.50;;
68583;SDS011;55557;49.220;11.150;2023-10-13T13:21:09;9.33;;;2.20;;
68583;SDS011;55557;49.220;11.150;2023-10-13T13:23:45;8.27;;;2.73;;
68583;SDS011;55557;49.220;11.150;2023-10-13T13:26:11;5.30;;;2.40;;
68583;SDS011;55557;49.220;11.150;2023-10-13T13:28:47;6.13;;;2.40;;
68583;SDS011;55557;49.220;11.150;2023-10-13T13:31:19;9.63;;;2.57;;
68583;SDS011;55557;49.220;11.150;2023-10-13T13:33:50;11.23;;;2.33;;
68583;SDS011;55557;49.220;11.150;2023-10-13T13:36:16;8.23;;;2.07;;
68583;SDS011;55557;49.220;11.150;2023-10-13T13:38:42;9.67;;;2.40;;
68583;SDS011;55557;49.220;11.150;2023-10-13T13:41:13;7.77;;;3.33;;
68583;SDS011;55557;49.220;11.150;2023-10-13T13:46:18;8.03;;;2.40;;
68583;SDS011;55557;49.220;11.150;2023-10-13T13:48:44;7.30;;;2.27;;
68583;SDS011;55557;49.220;11.150;2023-10-13T13:51:13;5.70;;;2.43;;
68583;SDS011;55557;49.220;11.150;2023-10-13T13:53:40;5.83;;;1.87;;
68583;SDS011;55557;49.220;11.150;2023-10-13T13:56:09;8.67;;;2.27;;
68583;SDS011;55557;49.220;11.150;2023-10-13T13:58:35;12.80;;;2.30;;
68583;SDS011;55557;49.220;11.150;2023-10-13T14:01:03;6.37;;;2.00;;
68583;SDS011;55557;49.220;11.150;2023-10-13T14:03:44;6.50;;;2.00;;
68583;SDS011;55557;49.220;11.150;2023-10-13T14:06:11;10.50;;;2.23;;
68583;SDS011;55557;49.220;11.150;2023-10-13T14:08:48;9.57;;;2.43;;
68583;SDS011;55557;49.220;11.150;2023-10-13T14:11:16;11.47;;;2.40;;
68583;SDS011;55557;49.220;11.150;2023-10-13T14:13:47;4.33;;;2.40;;
68583;SDS011;55557;49.220;11.150;2023-10-13T14:16:14;6.13;;;2.10;;
68583;SDS011;55557;49.220;11.150;2023-10-13T14:18:44;7.40;;;2.37;;
68583;SDS011;55557;49.220;11.150;2023-10-13T14:21:10;6.43;;;2.77;;
68583;SDS011;55557;49.220;11.150;2023-10-13T14:23:41;7.40;;;2.27;;
68583;SDS011;55557;49.220;11.150;2023-10-13T14:26:07;7.03;;;2.13;;
68583;SDS011;55557;49.220;11.150;2023-10-13T14:28:34;8.67;;;2.23;;
68583;SDS011;55557;49.220;11.150;2023-10-13T14:31:06;5.40;;;2.03;;
68583;SDS011;55557;49.220;11.150;2023-10-13T14:33:35;7.50;;;2.00;;
68583;SDS011;55557;49.220;11.150;2023-10-13T14:36:02;3.73;;;1.90;;
68583;SDS011;55557;49.220;11.150;2023-10-13T14:38:29;3.73;;;2.17;;
68583;SDS011;55557;49.220;11.150;2023-10-13T14:40:58;8.40;;;2.20;;
68583;SDS011;55557;49.220;11.150;2023-10-13T14:43:24;4.23;;;2.27;;
68583;SDS011;55557;49.220;11.150;2023-10-13T14:45:53;7.20;;;2.57;;
68583;SDS011;55557;49.220;11.150;2023-10-13T14:48:20;5.70;;;2.43;;
68583;SDS011;55557;49.220;11.150;2023-10-13T14:50:49;11.87;;;2.30;;
68583;SDS011;55557;49.220;11.150;2023-10-13T14:53:15;7.77;;;2.43;;
68583;SDS011;55557;49.220;11.150;2023-10-13T14:55:44;4.53;;;2.00;;
68583;SDS011;55557;49.220;11.150;2023-10-13T14:58:10;9.77;;;2.40;;
68583;SDS011;55557;49.220;11.150;2023-10-13T15:00:41;9.70;;;2.47;;
68583;SDS011;55557;49.220;11.150;2023-10-13T15:03:10;10.77;;;2.40;;
68583;SDS011;55557;49.220;11.150;2023-10-13T15:05:39;11.30;;;2.47;;
68583;SDS011;55557;49.220;11.150;2023-10-13T15:08:08;6.23;;;2.20;;
68583;SDS011;55557;49.220;11.150;2023-10-13T15:10:34;13.60;;;2.60;;
68583;SDS011;55557;49.220;11.150;2023-10-13T15:13:02;5.07;;;2.63;;
68583;SDS011;55557;49.220;11.150;2023-10-13T15:15:30;7.03;;;2.13;;
68583;SDS011;55557;49.220;11.150;2023-10-13T15:17:59;4.53;;;2.60;;
68583;SDS011;55557;49.220;11.150;2023-10-13T15:20:26;3.93;;;2.00;;
68583;SDS011;55557;49.220;11.150;2023-10-13T15:22:52;9.30;;;2.67;;